createdAt,value
2019-02-28T00:00:52.918Z,69.78
2019-02-28T00:01:52.933Z,68.92
2019-02-28T00:02:56.309Z,69.3
2019-02-28T00:03:52.972Z,69.11
2019-02-28T00:04:52.988Z,69.59
2019-02-28T00:05:52.999Z,69.68
2019-02-28T00:06:53.015Z,69.87
2019-02-28T00:07:53.033Z,69.68
2019-02-28T00:09:07.712Z,69.68
2019-02-28T00:09:53.064Z,69.4
2019-02-28T00:10:53.082Z,69.68
2019-02-28T00:11:53.096Z,69.59
2019-02-28T00:12:53.114Z,69.78
2019-02-28T00:13:57.704Z,69.96
2019-02-28T00:14:53.145Z,69.96
2019-02-28T00:15:53.235Z,70.63
2019-02-28T00:16:53.178Z,70.73
2019-02-28T00:17:53.195Z,70.63
2019-02-28T00:18:53.210Z,70.44
2019-02-28T00:19:55.268Z,70.54
2019-02-28T00:22:53.274Z,70.54
2019-02-28T00:23:59.000Z,70.54
2019-02-28T00:25:07.970Z,70.44
2019-02-28T00:25:53.322Z,70.73
2019-02-28T00:26:53.342Z,70.54
2019-02-28T00:28:53.370Z,71.11
2019-02-28T00:29:53.386Z,71.3
2019-02-28T00:30:53.401Z,71.2
2019-02-28T00:31:53.426Z,71.11
2019-02-28T00:32:56.297Z,71.11
2019-02-28T00:33:53.451Z,71.58
2019-02-28T00:34:53.467Z,71.48
2019-02-28T00:35:53.484Z,71.77
2019-02-28T00:38:53.531Z,72.25
2019-02-28T00:40:08.218Z,72.15
2019-02-28T00:40:53.565Z,72.44
2019-02-28T00:41:53.579Z,72.34
2019-02-28T00:42:53.890Z,72.72
2019-02-28T00:43:56.832Z,72.53
2019-02-28T00:44:53.632Z,72.44
2019-02-28T00:45:53.644Z,72.34
2019-02-28T00:46:53.660Z,72.63
2019-02-28T00:47:53.676Z,72.91
2019-02-28T00:48:55.648Z,72.91
2019-02-28T00:49:55.560Z,73.1
2019-02-28T00:51:53.739Z,73
2019-02-28T00:52:53.507Z,73.1
2019-02-28T00:53:53.771Z,73.1
2019-02-28T00:54:53.799Z,72.72
2019-02-28T00:55:53.806Z,73.19
2019-02-28T00:56:54.944Z,73.29
2019-02-28T00:57:55.361Z,73.1
2019-02-28T00:58:53.851Z,73.48
2019-02-28T00:59:53.866Z,73.67
2019-02-28T01:00:53.888Z,72.81
2019-02-28T01:01:53.899Z,73.38
2019-02-28T01:02:57.899Z,73.38
2019-02-28T01:03:53.933Z,73.38
2019-02-28T01:04:53.947Z,73.76
2019-02-28T01:05:53.962Z,73.48
2019-02-28T01:06:53.979Z,73.76
2019-02-28T01:07:53.994Z,73.76
2019-02-28T01:08:58.236Z,73.96
2019-02-28T01:09:54.034Z,74.05
2019-02-28T01:10:54.050Z,74.05
2019-02-28T01:12:08.721Z,73.86
2019-02-28T01:12:56.943Z,73.57
2019-02-28T01:13:54.090Z,74.05
2019-02-28T01:14:54.105Z,73.76
2019-02-28T01:15:54.126Z,73.96
2019-02-28T01:16:55.478Z,74.62
2019-02-28T01:17:54.171Z,73.67
2019-02-28T01:18:54.169Z,74.33
2019-02-28T01:19:54.185Z,74.15
2019-02-28T01:20:54.200Z,74.62
2019-02-28T01:21:55.358Z,74.15
2019-02-28T01:22:54.232Z,74.71
2019-02-28T01:23:54.252Z,74.62
2019-02-28T01:25:54.281Z,74.15
2019-02-28T01:26:54.296Z,74.15
2019-02-28T01:28:08.975Z,74.71
2019-02-28T01:28:54.329Z,74.33
2019-02-28T01:29:54.342Z,74.24
2019-02-28T01:30:54.364Z,74.52
2019-02-28T01:31:54.375Z,74.43
2019-02-28T01:32:54.396Z,74.43
2019-02-28T01:33:55.998Z,74.62
2019-02-28T01:34:54.422Z,74.52
2019-02-28T01:35:54.439Z,74.52
2019-02-28T01:36:54.453Z,74.05
2019-02-28T01:37:55.403Z,74.43
2019-02-28T01:38:57.416Z,74.43
2019-02-28T01:39:54.504Z,74.9
2019-02-28T01:40:54.532Z,74.71
2019-02-28T01:41:54.533Z,74.15
2019-02-28T01:42:57.316Z,74.33
2019-02-28T01:44:09.228Z,74.81
2019-02-28T01:44:54.589Z,74.52
2019-02-28T01:45:54.604Z,74.15
2019-02-28T01:46:54.618Z,74.71
2019-02-28T01:47:54.843Z,74.33
2019-02-28T01:48:57.494Z,74.43
2019-02-28T01:49:57.685Z,74.24
2019-02-28T01:50:54.686Z,74.37
2019-02-28T01:51:54.692Z,74.47
2019-02-28T01:53:56.140Z,73.9
2019-02-28T01:54:54.738Z,74.27
2019-02-28T01:55:54.755Z,73.52
2019-02-28T01:58:54.802Z,73.23
2019-02-28T02:00:09.482Z,73.14
2019-02-28T02:00:57.286Z,72.95
2019-02-28T02:01:54.878Z,73.04
2019-02-28T02:02:54.867Z,73.99
2019-02-28T02:03:54.891Z,73.27
2019-02-28T02:04:54.905Z,73.36
2019-02-28T02:05:54.921Z,73.18
2019-02-28T02:06:59.425Z,72.41
2019-02-28T02:07:54.947Z,73.36
2019-02-28T02:08:54.963Z,73.08
2019-02-28T02:09:54.977Z,72.99
2019-02-28T02:10:58.464Z,73.18
2019-02-28T02:11:57.918Z,73.18
2019-02-28T02:12:55.046Z,72.7
2019-02-28T02:13:55.042Z,72.79
2019-02-28T02:15:09.721Z,73.46
2019-02-28T02:15:55.075Z,73.08
2019-02-28T02:16:55.090Z,73.55
2019-02-28T02:17:55.106Z,73.84
2019-02-28T02:20:57.350Z,73.36
2019-02-28T02:21:55.169Z,73.65
2019-02-28T02:22:55.189Z,74.12
2019-02-28T02:23:56.184Z,74.12
2019-02-28T02:24:55.218Z,74.12
2019-02-28T02:26:55.250Z,74.12
2019-02-28T02:27:56.325Z,74.6
2019-02-28T02:28:55.286Z,74.12
2019-02-28T02:29:55.299Z,74.51
2019-02-28T02:30:55.324Z,74.41
2019-02-28T02:31:55.338Z,74.6
2019-02-28T02:32:55.353Z,74.69
2019-02-28T02:33:55.471Z,74.6
2019-02-28T02:34:55.384Z,74.69
2019-02-28T02:35:55.401Z,74.6
2019-02-28T02:36:56.903Z,75.07
2019-02-28T02:37:55.429Z,74.88
2019-02-28T02:38:55.450Z,75.36
2019-02-28T02:39:55.464Z,75.36
2019-02-28T02:41:01.679Z,75.36
2019-02-28T02:41:55.499Z,75.36
2019-02-28T02:42:55.512Z,75.84
2019-02-28T02:43:58.280Z,76.03
2019-02-28T02:44:55.645Z,76.03
2019-02-28T02:45:55.561Z,75.93
2019-02-28T02:47:10.237Z,76.21
2019-02-28T02:47:55.593Z,76.12
2019-02-28T02:48:55.381Z,76.59
2019-02-28T02:49:59.997Z,76.31
2019-02-28T02:51:55.658Z,75.93
2019-02-28T02:52:55.674Z,76.03
2019-02-28T02:53:55.442Z,76.03
2019-02-28T02:54:55.715Z,75.93
2019-02-28T02:55:55.732Z,76.03
2019-02-28T02:57:55.779Z,76.5
2019-02-28T02:58:55.770Z,76.21
2019-02-28T03:00:55.803Z,76.12
2019-02-28T03:01:58.841Z,76.03
2019-02-28T03:03:10.498Z,76.59
2019-02-28T03:03:55.854Z,76.12
2019-02-28T03:05:00.803Z,76.03
2019-02-28T03:05:55.645Z,76.03
2019-02-28T03:06:55.905Z,76.03
2019-02-28T03:08:02.091Z,76.88
2019-02-28T03:08:55.934Z,77.07
2019-02-28T03:09:55.953Z,77.07
2019-02-28T03:10:55.994Z,77.17
2019-02-28T03:11:59.978Z,76.69
2019-02-28T03:12:55.993Z,76.97
2019-02-28T03:13:56.013Z,76.88
2019-02-28T03:14:56.043Z,77.07
2019-02-28T03:15:59.165Z,77.26
2019-02-28T03:16:56.076Z,77.55
2019-02-28T03:17:56.082Z,77.73
2019-02-28T03:19:10.754Z,77.92
2019-02-28T03:19:56.109Z,78.11
2019-02-28T03:20:56.130Z,77.83
2019-02-28T03:21:56.142Z,78.11
2019-02-28T03:22:56.165Z,78.3
2019-02-28T03:23:56.175Z,78.3
2019-02-28T03:24:56.197Z,78.3
2019-02-28T03:26:56.220Z,78.5
2019-02-28T03:28:56.254Z,77.83
2019-02-28T03:29:56.268Z,78.11
2019-02-28T03:30:56.315Z,78.21
2019-02-28T03:31:59.863Z,78.3
2019-02-28T03:32:56.333Z,78.3
2019-02-28T03:34:09.679Z,78.3
2019-02-28T03:35:11.014Z,79.25
2019-02-28T03:35:56.375Z,79.16
2019-02-28T03:36:59.726Z,78.4
2019-02-28T03:37:56.410Z,79.16
2019-02-28T03:38:56.422Z,78.78
2019-02-28T03:40:05.416Z,79.22
2019-02-28T03:40:56.460Z,79.79
2019-02-28T03:41:56.681Z,80.07
2019-02-28T03:42:56.477Z,79.83
2019-02-28T03:43:56.498Z,79.83
2019-02-28T03:45:00.473Z,80.35
2019-02-28T03:45:56.540Z,80.4
2019-02-28T03:48:01.005Z,80.58
2019-02-28T03:48:56.584Z,80.45
2019-02-28T03:50:11.261Z,80.3
2019-02-28T03:50:57.849Z,80.93
2019-02-28T03:51:56.632Z,80.45
2019-02-28T03:52:56.645Z,81.12
2019-02-28T03:53:59.180Z,80.87
2019-02-28T03:54:56.674Z,80.96
2019-02-28T03:55:56.692Z,80.58
2019-02-28T03:56:56.705Z,80.83
2019-02-28T03:58:03.724Z,80.68
2019-02-28T03:58:56.754Z,80.83
2019-02-28T03:59:59.330Z,80.64
2019-02-28T04:00:56.784Z,81.4
2019-02-28T04:01:56.788Z,81.4
2019-02-28T04:03:01.292Z,82.16
2019-02-28T04:03:56.821Z,81.87
2019-02-28T04:04:56.861Z,81.68
2019-02-28T04:06:02.852Z,81.68
2019-02-28T04:06:56.870Z,81.68
2019-02-28T04:07:57.505Z,81.68
2019-02-28T04:08:56.901Z,82.16
2019-02-28T04:09:56.915Z,81.97
2019-02-28T04:10:58.127Z,82.45
2019-02-28T04:11:56.955Z,81.97
2019-02-28T04:12:56.965Z,82.26
2019-02-28T04:13:59.223Z,81.97
2019-02-28T04:14:56.999Z,82.16
2019-02-28T04:16:10.668Z,82.1
2019-02-28T04:16:57.028Z,81.78
2019-02-28T04:17:57.065Z,82.26
2019-02-28T04:18:57.065Z,82.73
2019-02-28T04:20:01.266Z,82.92
2019-02-28T04:20:57.094Z,83.3
2019-02-28T04:22:11.771Z,83.39
2019-02-28T04:23:01.332Z,82.35
2019-02-28T04:23:56.899Z,82.87
2019-02-28T04:24:57.158Z,82.64
2019-02-28T04:26:00.081Z,82.92
2019-02-28T04:26:57.191Z,83.39
2019-02-28T04:27:57.204Z,83.44
2019-02-28T04:28:57.413Z,82.82
2019-02-28T04:29:57.237Z,83.11
2019-02-28T04:30:57.255Z,82.92
2019-02-28T04:31:58.134Z,83.49
2019-02-28T04:33:03.676Z,83.59
2019-02-28T04:33:57.303Z,83.11
2019-02-28T04:34:57.333Z,83.2
2019-02-28T04:36:02.603Z,83.59
2019-02-28T04:36:57.349Z,83.59
2019-02-28T04:38:12.027Z,83.87
2019-02-28T04:38:57.391Z,83.78
2019-02-28T04:39:57.394Z,83.78
2019-02-28T04:40:58.761Z,83.49
2019-02-28T04:41:57.429Z,83.59
2019-02-28T04:42:57.444Z,83.59
2019-02-28T04:43:57.468Z,84.06
2019-02-28T04:44:57.480Z,83.97
2019-02-28T04:46:00.289Z,83.62
2019-02-28T04:46:57.513Z,83.87
2019-02-28T04:47:57.545Z,83.87
2019-02-28T04:48:57.542Z,83.49
2019-02-28T04:49:59.982Z,83.97
2019-02-28T04:50:57.573Z,84.16
2019-02-28T04:51:57.587Z,84.25
2019-02-28T04:52:57.608Z,84.16
2019-02-28T04:54:12.282Z,83.59
2019-02-28T04:54:59.353Z,83.68
2019-02-28T04:55:57.652Z,83.68
2019-02-28T04:56:57.668Z,83.97
2019-02-28T04:57:57.684Z,83.72
2019-02-28T04:59:01.723Z,83.78
2019-02-28T04:59:57.815Z,83.72
2019-02-28T05:00:57.731Z,83.59
2019-02-28T05:01:57.747Z,83.87
2019-02-28T05:02:57.762Z,83.97
2019-02-28T05:03:59.109Z,84.44
2019-02-28T05:04:57.794Z,84.16
2019-02-28T05:05:57.809Z,84.29
2019-02-28T05:06:58.324Z,84.06
2019-02-28T05:07:57.843Z,84.25
2019-02-28T05:08:57.866Z,84.53
2019-02-28T05:10:12.537Z,84.63
2019-02-28T05:10:59.090Z,84.63
2019-02-28T05:11:57.913Z,84.44
2019-02-28T05:12:57.921Z,84.63
2019-02-28T05:13:57.941Z,85.2
2019-02-28T05:15:02.566Z,84.82
2019-02-28T05:15:57.970Z,85.3
2019-02-28T05:16:57.986Z,85.01
2019-02-28T05:17:59.234Z,85.49
2019-02-28T05:19:03.788Z,85.68
2019-02-28T05:19:58.033Z,85.58
2019-02-28T05:20:58.049Z,85.3
2019-02-28T05:23:58.097Z,85.96
2019-02-28T05:25:17.279Z,86.15
2019-02-28T05:25:58.129Z,86.24
2019-02-28T05:27:02.217Z,86.72
2019-02-28T05:27:58.165Z,86.72
2019-02-28T05:28:58.183Z,86.82
2019-02-28T05:29:58.193Z,86.53
2019-02-28T05:30:58.210Z,86.91
2019-02-28T05:32:03.071Z,87.1
2019-02-28T05:32:58.241Z,87.01
2019-02-28T05:33:58.258Z,87.76
2019-02-28T05:36:04.286Z,88.43
2019-02-28T05:36:58.306Z,87.95
2019-02-28T05:37:58.084Z,88.53
2019-02-28T05:38:59.601Z,88.15
2019-02-28T05:39:58.352Z,87.67
2019-02-28T05:40:58.367Z,87.86
2019-02-28T05:41:58.383Z,88.24
2019-02-28T05:43:01.488Z,88.62
2019-02-28T05:43:58.418Z,88.62
2019-02-28T05:44:58.431Z,88.71
2019-02-28T05:45:59.421Z,88.71
2019-02-28T05:47:01.099Z,88.34
2019-02-28T05:47:58.482Z,88.43
2019-02-28T05:48:58.495Z,88.34
2019-02-28T05:49:58.565Z,88.34
2019-02-28T05:50:58.527Z,88.62
2019-02-28T05:52:01.405Z,88.53
2019-02-28T05:52:58.557Z,88.43
2019-02-28T05:53:58.574Z,88.9
2019-02-28T05:55:00.335Z,89.28
2019-02-28T05:56:02.069Z,88.9
2019-02-28T05:57:13.285Z,89.38
2019-02-28T05:57:58.640Z,88.9
2019-02-28T05:58:58.659Z,88.9
2019-02-28T06:00:04.059Z,89.38
2019-02-28T06:00:58.684Z,89.76
2019-02-28T06:01:58.703Z,89.47
2019-02-28T06:03:02.618Z,89.95
2019-02-28T06:04:02.651Z,89.57
2019-02-28T06:04:58.748Z,89.95
2019-02-28T06:05:58.767Z,89.38
2019-02-28T06:06:58.779Z,90.05
2019-02-28T06:08:00.443Z,89.57
2019-02-28T06:08:58.812Z,89.95
2019-02-28T06:09:58.830Z,90.05
2019-02-28T06:11:03.127Z,90.14
2019-02-28T06:11:58.863Z,89.57
2019-02-28T06:13:15.265Z,90.05
2019-02-28T06:13:58.894Z,89.57
2019-02-28T06:15:04.673Z,89.57
2019-02-28T06:15:58.927Z,89.47
2019-02-28T06:16:58.958Z,89.86
2019-02-28T06:17:58.955Z,89.67
2019-02-28T06:18:58.978Z,89.67
2019-02-28T06:19:58.991Z,89.86
2019-02-28T06:20:59.002Z,89.86
2019-02-28T06:22:01.925Z,89.57
2019-02-28T06:22:59.085Z,89.52
2019-02-28T06:23:59.055Z,89.67
2019-02-28T06:24:59.070Z,89.28
2019-02-28T06:26:01.877Z,89.23
2019-02-28T06:26:59.431Z,88.76
2019-02-28T06:27:59.115Z,88.57
2019-02-28T06:29:13.794Z,88.38
2019-02-28T06:29:59.150Z,88.38
2019-02-28T06:31:00.188Z,88.47
2019-02-28T06:31:59.188Z,88.09
2019-02-28T06:33:01.796Z,87.62
2019-02-28T06:33:59.220Z,87.62
2019-02-28T06:34:59.870Z,87.24
2019-02-28T06:35:59.281Z,87.14
2019-02-28T06:37:00.316Z,86.76
2019-02-28T06:37:59.291Z,86.52
2019-02-28T06:38:59.315Z,86.43
2019-02-28T06:40:01.078Z,86.71
2019-02-28T06:40:59.348Z,86.24
2019-02-28T06:42:59.386Z,86.05
2019-02-28T06:43:59.412Z,85.86
2019-02-28T06:45:14.089Z,85.28
2019-02-28T06:45:59.444Z,85.86
2019-02-28T06:46:59.465Z,85.66
2019-02-28T06:47:59.597Z,85.28
2019-02-28T06:49:07.073Z,85.57
2019-02-28T06:49:59.526Z,85.66
2019-02-28T06:50:59.548Z,85.76
2019-02-28T06:51:59.567Z,85.38
2019-02-28T06:53:02.176Z,85.57
2019-02-28T06:53:59.611Z,84.91
2019-02-28T06:54:59.631Z,85.38
2019-02-28T06:56:59.674Z,85.33
2019-02-28T06:58:01.283Z,85.14
2019-02-28T06:58:59.721Z,84.47
2019-02-28T07:00:14.408Z,84.85
2019-02-28T07:00:59.807Z,84.47
2019-02-28T07:02:00.185Z,84.47
2019-02-28T07:03:03.244Z,84.56
2019-02-28T07:03:59.829Z,84.56
2019-02-28T07:04:59.851Z,84.38
2019-02-28T07:06:03.406Z,84
2019-02-28T07:06:59.899Z,83.71
2019-02-28T07:07:59.918Z,83.71
2019-02-28T07:09:04.580Z,83.71
2019-02-28T07:09:59.974Z,83.23
2019-02-28T07:10:59.986Z,83.04
2019-02-28T07:12:00.008Z,82.99
2019-02-28T07:13:03.947Z,82.9
2019-02-28T07:13:59.805Z,83.56
2019-02-28T07:15:00.143Z,82.67
2019-02-28T07:16:04.298Z,83.23
2019-02-28T07:17:00.121Z,82.9
2019-02-28T07:18:00.144Z,82.42
2019-02-28T07:19:00.182Z,82.9
2019-02-28T07:20:04.202Z,82.9
2019-02-28T07:21:00.217Z,82.7
2019-02-28T07:22:00.237Z,82.8
2019-02-28T07:23:00.262Z,82.04
2019-02-28T07:24:02.351Z,82.32
2019-02-28T07:26:00.333Z,81.66
2019-02-28T07:27:00.452Z,81.66
2019-02-28T07:28:04.209Z,81.66
2019-02-28T07:29:00.406Z,81.47
2019-02-28T07:30:00.594Z,81.66
2019-02-28T07:31:00.444Z,81.28
2019-02-28T07:32:15.134Z,81.56
2019-02-28T07:33:00.491Z,81.23
2019-02-28T07:34:00.514Z,81.23
2019-02-28T07:35:01.403Z,81.51
2019-02-28T07:36:00.562Z,81.03
2019-02-28T07:37:00.594Z,80.94
2019-02-28T07:38:00.613Z,80.65
2019-02-28T07:39:06.591Z,80.36
2019-02-28T07:40:00.664Z,80.18
2019-02-28T07:41:00.685Z,80.36
2019-02-28T07:43:00.732Z,80.55
2019-02-28T07:44:01.501Z,79.51
2019-02-28T07:45:01.386Z,79.7
2019-02-28T07:47:00.816Z,80.27
2019-02-28T07:48:15.504Z,79.7
2019-02-28T07:49:03.373Z,80.18
2019-02-28T07:50:00.888Z,79.8
2019-02-28T07:51:01.733Z,80.65
2019-02-28T07:52:00.927Z,80.46
2019-02-28T07:53:00.708Z,80.27
2019-02-28T07:54:01.630Z,80.18
2019-02-28T07:55:00.999Z,79.8
2019-02-28T07:56:03.726Z,79.7
2019-02-28T07:58:01.074Z,79.36
2019-02-28T07:59:01.100Z,79.46
2019-02-28T08:00:02.448Z,79.32
2019-02-28T08:01:01.135Z,79.46
2019-02-28T08:02:05.191Z,79.74
2019-02-28T08:03:01.180Z,79.6
2019-02-28T08:04:18.336Z,79.93
2019-02-28T08:05:02.980Z,78.88
2019-02-28T08:06:07.024Z,79.27
2019-02-28T08:07:01.267Z,78.41
2019-02-28T08:08:01.288Z,78.41
2019-02-28T08:09:04.801Z,78.78
2019-02-28T08:10:01.338Z,79.36
2019-02-28T08:11:01.356Z,78.5
2019-02-28T08:12:01.583Z,79.17
2019-02-28T08:13:03.013Z,79.17
2019-02-28T08:14:01.421Z,78.98
2019-02-28T08:15:01.451Z,78.31
2019-02-28T08:16:02.791Z,78.06
2019-02-28T08:18:01.515Z,78.35
2019-02-28T08:19:01.531Z,78.25
2019-02-28T08:20:16.219Z,77.97
2019-02-28T08:21:01.577Z,77.87
2019-02-28T08:22:01.613Z,77.78
2019-02-28T08:23:01.621Z,77.49
2019-02-28T08:24:02.436Z,77.69
2019-02-28T08:25:01.670Z,77.87
2019-02-28T08:26:01.691Z,78.44
2019-02-28T08:27:01.714Z,77.87
2019-02-28T08:28:03.162Z,77.97
2019-02-28T08:29:01.755Z,77.69
2019-02-28T08:30:01.529Z,77.97
2019-02-28T08:31:01.796Z,77.87
2019-02-28T08:33:01.858Z,78.44
2019-02-28T08:34:01.871Z,77.69
2019-02-28T08:35:16.550Z,77.4
2019-02-28T08:36:01.908Z,77.97
2019-02-28T08:37:01.929Z,77.49
2019-02-28T08:38:01.959Z,77.15
2019-02-28T08:39:01.975Z,76.67
2019-02-28T08:40:02.002Z,76.39
2019-02-28T08:41:02.017Z,76.39
2019-02-28T08:43:02.061Z,77.4
2019-02-28T08:44:02.083Z,77.69
2019-02-28T08:45:02.111Z,77.78
2019-02-28T08:47:02.158Z,76.48
2019-02-28T08:48:02.175Z,76.54
2019-02-28T08:49:06.069Z,76.92
2019-02-28T08:50:02.221Z,77.3
2019-02-28T08:51:02.251Z,77.3
2019-02-28T08:52:07.782Z,76.29
2019-02-28T08:53:02.281Z,76.57
2019-02-28T08:54:02.307Z,77.15
2019-02-28T08:55:09.111Z,76.39
2019-02-28T08:56:02.350Z,76.2
2019-02-28T08:57:02.368Z,76.2
2019-02-28T08:59:11.356Z,76.2
2019-02-28T09:00:02.606Z,76.29
2019-02-28T09:01:05.248Z,76.54
2019-02-28T09:02:02.479Z,76.57
2019-02-28T09:03:03.429Z,76.57
2019-02-28T09:04:08.087Z,76.2
2019-02-28T09:05:02.679Z,76.29
2019-02-28T09:06:07.386Z,76.1
2019-02-28T09:07:17.251Z,75.24
2019-02-28T09:08:02.610Z,75.43
2019-02-28T09:09:03.045Z,76.1
2019-02-28T09:10:02.666Z,75.91
2019-02-28T09:11:02.677Z,75.72
2019-02-28T09:12:02.697Z,75.72
2019-02-28T09:13:07.557Z,75.43
2019-02-28T09:14:02.742Z,76.2
2019-02-28T09:15:02.764Z,77.34
2019-02-28T09:17:02.805Z,75.91
2019-02-28T09:18:02.831Z,75.37
2019-02-28T09:19:03.961Z,75.47
2019-02-28T09:20:02.881Z,74.52
2019-02-28T09:21:02.895Z,74.52
2019-02-28T09:22:02.915Z,74.71
2019-02-28T09:23:17.602Z,74.8
2019-02-28T09:24:02.963Z,74.9
2019-02-28T09:25:02.991Z,74.23
2019-02-28T09:26:03.508Z,74.42
2019-02-28T09:27:06.225Z,73.94
2019-02-28T09:28:03.053Z,73.85
2019-02-28T09:29:03.070Z,74.23
2019-02-28T09:30:03.097Z,73.94
2019-02-28T09:31:07.074Z,74.04
2019-02-28T09:32:03.186Z,74.52
2019-02-28T09:33:03.158Z,73.47
2019-02-28T09:34:03.187Z,74.23
2019-02-28T09:35:05.726Z,73.75
2019-02-28T09:36:03.335Z,73.37
2019-02-28T09:37:03.246Z,73.85
2019-02-28T09:38:13.127Z,73.5
2019-02-28T09:39:19.388Z,72.83
2019-02-28T09:40:03.314Z,73.12
2019-02-28T09:41:06.496Z,72.64
2019-02-28T09:42:03.361Z,72.45
2019-02-28T09:43:03.379Z,72.83
2019-02-28T09:44:03.402Z,72.45
2019-02-28T09:45:09.215Z,73.12
2019-02-28T09:46:03.466Z,72.36
2019-02-28T09:47:03.471Z,71.59
2019-02-28T09:48:04.760Z,72.45
2019-02-28T09:49:05.464Z,72.64
2019-02-28T09:50:03.543Z,72.26
2019-02-28T09:51:03.560Z,72.71
2019-02-28T09:52:08.416Z,72.61
2019-02-28T09:53:03.613Z,72.07
2019-02-28T09:54:03.637Z,72.45
2019-02-28T09:55:18.314Z,71.69
2019-02-28T09:56:08.818Z,72.55
2019-02-28T09:57:03.697Z,71.59
2019-02-28T09:58:03.715Z,71.88
2019-02-28T09:59:06.243Z,71.59
2019-02-28T10:00:03.771Z,71.41
2019-02-28T10:01:03.785Z,72.74
2019-02-28T10:02:08.347Z,72.64
2019-02-28T10:03:03.834Z,71.78
2019-02-28T10:04:03.870Z,71.78
2019-02-28T10:06:03.894Z,71.78
2019-02-28T10:07:03.919Z,71.78
2019-02-28T10:08:07.034Z,71.88
2019-02-28T10:09:03.961Z,71.59
2019-02-28T10:10:20.751Z,70.96
2019-02-28T10:11:04.008Z,71.02
2019-02-28T10:12:11.032Z,70.87
2019-02-28T10:13:04.049Z,70.67
2019-02-28T10:14:04.076Z,70.01
2019-02-28T10:15:09.738Z,71.21
2019-02-28T10:16:04.121Z,70.83
2019-02-28T10:17:04.145Z,71.31
2019-02-28T10:18:07.482Z,71.88
2019-02-28T10:21:04.907Z,71.88
2019-02-28T10:22:04.250Z,71.59
2019-02-28T10:23:04.278Z,71.69
2019-02-28T10:24:04.294Z,71.98
2019-02-28T10:25:08.526Z,71.88
2019-02-28T10:26:04.338Z,71.69
2019-02-28T10:27:05.926Z,71.41
2019-02-28T10:28:05.290Z,72.07
2019-02-28T10:29:10.594Z,72.93
2019-02-28T10:30:04.424Z,72.36
2019-02-28T10:31:04.448Z,72.55
2019-02-28T10:32:06.124Z,72.83
2019-02-28T10:33:04.496Z,72.26
2019-02-28T10:34:04.516Z,73.03
2019-02-28T10:35:04.745Z,73.12
2019-02-28T10:36:04.578Z,72.26
2019-02-28T10:37:06.725Z,72.55
2019-02-28T10:38:04.598Z,72.17
2019-02-28T10:39:05.809Z,72.93
2019-02-28T10:40:05.139Z,71.88
2019-02-28T10:41:04.663Z,72.55
2019-02-28T10:42:19.354Z,71.63
2019-02-28T10:43:04.706Z,71.92
2019-02-28T10:44:04.729Z,71.44
2019-02-28T10:45:08.537Z,71.53
2019-02-28T10:46:04.770Z,72.26
2019-02-28T10:47:04.792Z,72.93
2019-02-28T10:48:06.383Z,72.58
2019-02-28T10:49:04.834Z,72.26
2019-02-28T10:50:04.863Z,72.07
2019-02-28T10:51:15.360Z,72.45
2019-02-28T10:52:04.898Z,72.58
2019-02-28T10:53:08.094Z,72.3
2019-02-28T10:54:04.943Z,72.2
2019-02-28T10:55:04.967Z,72.2
2019-02-28T10:56:05.085Z,71.25
2019-02-28T10:58:19.691Z,70.67
2019-02-28T10:59:05.057Z,71.25
2019-02-28T11:00:05.073Z,71.92
2019-02-28T11:01:10.187Z,71.72
2019-02-28T11:02:05.112Z,71.5
2019-02-28T11:03:05.137Z,71.44
2019-02-28T11:04:09.565Z,71.5
2019-02-28T11:05:05.176Z,71.5
2019-02-28T11:06:05.203Z,71.5
2019-02-28T11:07:05.530Z,71.44
2019-02-28T11:08:05.250Z,71.72
2019-02-28T11:09:05.261Z,71.34
2019-02-28T11:10:05.281Z,70.77
2019-02-28T11:12:05.323Z,71.53
2019-02-28T11:13:05.367Z,71.72
2019-02-28T11:14:20.030Z,71.63
2019-02-28T11:15:05.491Z,71.15
2019-02-28T11:16:05.411Z,71.34
2019-02-28T11:17:10.507Z,71.31
2019-02-28T11:19:05.471Z,72.55
2019-02-28T11:20:05.497Z,72.26
2019-02-28T11:21:05.514Z,72.55
2019-02-28T11:22:08.107Z,71.88
2019-02-28T11:24:05.335Z,72.26
2019-02-28T11:26:06.355Z,72.17
2019-02-28T11:28:05.660Z,72.58
2019-02-28T11:29:06.312Z,71.92
2019-02-28T11:30:20.364Z,71.25
2019-02-28T11:31:05.724Z,71.06
2019-02-28T11:32:05.744Z,71.15
2019-02-28T11:33:07.163Z,71.25
2019-02-28T11:34:05.787Z,70.96
2019-02-28T11:35:05.808Z,71.06
2019-02-28T11:36:07.403Z,71.15
2019-02-28T11:37:12.736Z,71.15
2019-02-28T11:38:07.439Z,71.82
2019-02-28T11:39:05.887Z,71.72
2019-02-28T11:40:08.457Z,71.63
2019-02-28T11:41:05.928Z,71.53
2019-02-28T11:42:05.950Z,71.44
2019-02-28T11:43:06.422Z,72.78
2019-02-28T11:44:05.993Z,72.01
2019-02-28T11:45:21.569Z,71.82
2019-02-28T11:46:06.037Z,71.72
2019-02-28T11:47:08.318Z,72.2
2019-02-28T11:48:06.075Z,72.2
2019-02-28T11:49:06.098Z,71.92
2019-02-28T11:50:08.188Z,71.63
2019-02-28T11:51:06.142Z,71.72
2019-02-28T11:52:06.258Z,72.01
2019-02-28T11:53:08.341Z,71.82
2019-02-28T11:54:06.210Z,72.68
2019-02-28T11:55:06.221Z,71.92
2019-02-28T11:56:06.249Z,71.53
2019-02-28T11:58:06.287Z,72.01
2019-02-28T11:59:06.303Z,72.49
2019-02-28T12:00:06.328Z,71.72
2019-02-28T12:01:09.938Z,72.11
2019-02-28T12:02:06.366Z,72.2
2019-02-28T12:03:08.101Z,72.78
2019-02-28T12:04:06.408Z,72.58
2019-02-28T12:05:06.431Z,72.3
2019-02-28T12:06:06.918Z,72.87
2019-02-28T12:07:06.472Z,72.3
2019-02-28T12:08:11.734Z,72.68
2019-02-28T12:09:06.510Z,72.3
2019-02-28T12:10:06.534Z,72.39
2019-02-28T12:11:06.553Z,72.3
2019-02-28T12:12:07.235Z,72.2
2019-02-28T12:14:08.705Z,72.49
2019-02-28T12:15:09.058Z,72.3
2019-02-28T12:16:06.655Z,71.86
2019-02-28T12:17:21.341Z,71.15
2019-02-28T12:18:07.332Z,71.44
2019-02-28T12:19:06.718Z,71.63
2019-02-28T12:20:06.746Z,71.38
2019-02-28T12:21:07.432Z,71.95
2019-02-28T12:22:09.111Z,71.95
2019-02-28T12:23:06.803Z,71.86
2019-02-28T12:24:06.824Z,71.76
2019-02-28T12:25:10.025Z,71.34
2019-02-28T12:26:06.864Z,70.9
2019-02-28T12:27:06.887Z,70.77
2019-02-28T12:28:09.010Z,71.15
2019-02-28T12:30:06.949Z,71.25
2019-02-28T12:31:07.067Z,70.39
2019-02-28T12:32:07.984Z,70.96
2019-02-28T12:33:23.212Z,70.2
2019-02-28T12:34:07.033Z,70.42
2019-02-28T12:35:07.055Z,69.18
2019-02-28T12:36:07.071Z,69.43
2019-02-28T12:37:07.093Z,69.24
2019-02-28T12:38:07.112Z,69.72
2019-02-28T12:39:07.133Z,69.91
2019-02-28T12:40:10.202Z,69.76
2019-02-28T12:42:07.196Z,69.47
2019-02-28T12:43:08.591Z,69.72
2019-02-28T12:45:07.261Z,69.47
2019-02-28T12:46:07.281Z,70.23
2019-02-28T12:47:09.627Z,69.27
2019-02-28T12:48:07.321Z,68.9
2019-02-28T12:49:22.985Z,68.04
2019-02-28T12:50:07.363Z,68.51
2019-02-28T12:51:08.442Z,68.23
2019-02-28T12:52:07.404Z,68.7
2019-02-28T12:53:07.427Z,68.51
2019-02-28T12:54:07.446Z,68.04
2019-02-28T12:55:07.476Z,68.51
2019-02-28T12:56:07.491Z,68.64
2019-02-28T12:57:07.514Z,68.41
2019-02-28T12:58:07.531Z,68.8
2019-02-28T12:59:09.895Z,68.8
2019-02-28T13:00:07.570Z,68.7
2019-02-28T13:01:07.596Z,69.47
2019-02-28T13:02:10.909Z,69.09
2019-02-28T13:03:09.123Z,69.47
2019-02-28T13:04:07.653Z,69.66
2019-02-28T13:05:22.339Z,68.99
2019-02-28T13:06:07.701Z,68.7
2019-02-28T13:07:07.724Z,69.37
2019-02-28T13:08:09.241Z,69.18
2019-02-28T13:09:07.768Z,69.18
2019-02-28T13:10:07.781Z,69.37
2019-02-28T13:11:07.825Z,69.47
2019-02-28T13:12:12.099Z,69.47
2019-02-28T13:13:10.041Z,70.04
2019-02-28T13:14:08.961Z,69.76
2019-02-28T13:15:07.899Z,69.47
2019-02-28T13:16:07.948Z,69.66
2019-02-28T13:19:07.983Z,70.04
2019-02-28T13:20:22.653Z,69.95
2019-02-28T13:21:12.440Z,69.76
2019-02-28T13:22:08.063Z,69.56
2019-02-28T13:23:08.237Z,69.18
2019-02-28T13:24:12.067Z,69.47
2019-02-28T13:25:08.093Z,69.18
2019-02-28T13:26:08.113Z,69.21
2019-02-28T13:28:08.170Z,68.99
2019-02-28T13:29:09.990Z,69.85
2019-02-28T13:30:13.912Z,70.04
2019-02-28T13:31:08.222Z,70.04
2019-02-28T13:32:08.238Z,69.85
2019-02-28T13:33:10.892Z,69.66
2019-02-28T13:34:08.279Z,70.04
2019-02-28T13:35:11.075Z,70.14
2019-02-28T13:36:08.348Z,69.18
2019-02-28T13:37:08.345Z,69.37
2019-02-28T13:38:08.387Z,69.41
2019-02-28T13:39:08.399Z,68.64
2019-02-28T13:40:11.701Z,68.93
2019-02-28T13:41:08.429Z,68.64
2019-02-28T13:42:08.453Z,68.26
2019-02-28T13:43:08.476Z,68.16
2019-02-28T13:45:21.515Z,69.21
2019-02-28T13:46:08.535Z,68.55
2019-02-28T13:47:13.054Z,69.21
2019-02-28T13:48:09.839Z,68.64